createdAt,value
2018-03-21T00:02:13.323Z,14.27
2018-03-21T00:04:40.974Z,14.10
2018-03-21T00:07:08.587Z,12.23
2018-03-21T00:09:36.196Z,13.60
2018-03-21T00:12:03.852Z,10.67
2018-03-21T00:14:31.472Z,11.10
2018-03-21T00:16:59.065Z,12.53
2018-03-21T00:19:26.666Z,13.20
2018-03-21T00:21:54.363Z,13.77
2018-03-21T00:24:21.979Z,14.47
2018-03-21T00:26:49.566Z,13.70
2018-03-21T00:29:17.190Z,12.10
2018-03-21T00:31:44.811Z,17.73
2018-03-21T00:34:12.476Z,15.93
2018-03-21T00:36:40.067Z,12.77
2018-03-21T00:39:07.691Z,11.90
2018-03-21T00:41:35.278Z,11.97
2018-03-21T00:44:02.875Z,12.17
2018-03-21T00:46:30.491Z,11.47
2018-03-21T00:48:58.086Z,10.33
2018-03-21T00:51:25.713Z,11.40
2018-03-21T00:53:53.314Z,11.83
2018-03-21T00:56:20.967Z,11.07
2018-03-21T00:58:48.606Z,12.13
2018-03-21T01:01:16.216Z,12.53
2018-03-21T01:03:43.820Z,12.83
2018-03-21T01:06:11.503Z,12.37
2018-03-21T01:08:39.094Z,11.87
2018-03-21T01:11:06.716Z,12.97
2018-03-21T01:13:34.370Z,12.80
2018-03-21T01:16:01.976Z,13.83
2018-03-21T01:18:29.616Z,13.17
2018-03-21T01:20:57.211Z,12.20
2018-03-21T01:23:24.800Z,13.53
2018-03-21T01:25:52.435Z,12.97
2018-03-21T01:28:20.018Z,14.00
2018-03-21T01:30:47.598Z,11.03
2018-03-21T01:33:15.200Z,12.87
2018-03-21T01:35:42.818Z,12.97
2018-03-21T01:38:10.503Z,12.23
2018-03-21T01:40:38.102Z,12.27
2018-03-21T01:43:05.728Z,13.00
2018-03-21T01:45:33.350Z,10.97
2018-03-21T01:48:00.935Z,11.87
2018-03-21T01:50:28.594Z,12.77
2018-03-21T01:53:12.835Z,12.93
2018-03-21T01:55:40.494Z,13.77
2018-03-21T01:58:08.175Z,13.07
2018-03-21T02:00:35.763Z,12.43
2018-03-21T02:03:03.394Z,11.77
2018-03-21T02:05:31.017Z,12.03
2018-03-21T02:07:58.667Z,10.80
2018-03-21T02:10:26.306Z,11.30
2018-03-21T02:12:53.927Z,11.27
2018-03-21T02:15:21.516Z,11.10
2018-03-21T02:17:49.116Z,10.93
2018-03-21T02:20:16.805Z,11.37
2018-03-21T02:22:44.403Z,11.60
2018-03-21T02:25:12.034Z,12.57
2018-03-21T02:27:39.671Z,10.93
2018-03-21T02:30:07.263Z,12.03
2018-03-21T02:32:34.862Z,11.87
2018-03-21T02:35:02.502Z,11.60
2018-03-21T02:37:30.110Z,11.93
2018-03-21T02:39:57.737Z,13.13
2018-03-21T02:42:25.350Z,12.50
2018-03-21T02:44:52.975Z,11.83
2018-03-21T02:47:20.571Z,12.00
2018-03-21T02:49:48.197Z,12.70
2018-03-21T02:52:15.827Z,11.87
2018-03-21T02:54:43.448Z,8.37
2018-03-21T02:57:11.047Z,13.40
2018-03-21T02:59:38.661Z,12.43
2018-03-21T03:02:06.292Z,13.43
2018-03-21T03:04:33.940Z,13.10
2018-03-21T03:07:01.536Z,12.43
2018-03-21T03:09:29.148Z,12.80
2018-03-21T03:11:56.781Z,12.83
2018-03-21T03:14:24.374Z,12.43
2018-03-21T03:16:51.980Z,12.60
2018-03-21T03:19:19.583Z,12.90
2018-03-21T03:21:47.190Z,12.40
2018-03-21T03:24:14.822Z,12.67
2018-03-21T03:26:42.435Z,12.43
2018-03-21T03:29:10.032Z,12.37
2018-03-21T03:31:37.711Z,13.27
2018-03-21T03:34:05.328Z,13.57
2018-03-21T03:36:32.954Z,12.77
2018-03-21T03:39:00.578Z,12.70
2018-03-21T03:41:28.210Z,13.03
2018-03-21T03:43:55.796Z,11.77
2018-03-21T03:46:23.386Z,12.87
2018-03-21T03:48:51.047Z,12.63
2018-03-21T03:51:18.650Z,12.63
2018-03-21T03:53:46.235Z,12.40
2018-03-21T03:56:13.892Z,13.27
2018-03-21T03:58:41.510Z,12.67
2018-03-21T04:01:09.096Z,13.87
2018-03-21T04:03:36.746Z,13.33
2018-03-21T04:06:04.366Z,12.03
2018-03-21T04:08:31.995Z,13.17
2018-03-21T04:10:59.623Z,13.57
2018-03-21T04:13:27.218Z,12.33
2018-03-21T04:15:54.801Z,12.40
2018-03-21T04:18:22.399Z,13.27
2018-03-21T04:20:49.992Z,12.27
2018-03-21T04:23:17.689Z,13.27
2018-03-21T04:25:45.287Z,12.83
2018-03-21T04:28:12.878Z,13.77
2018-03-21T04:30:40.545Z,13.63
2018-03-21T04:33:08.126Z,13.03
2018-03-21T04:35:35.790Z,13.37
2018-03-21T04:38:03.439Z,14.07
2018-03-21T04:40:31.029Z,14.43
2018-03-21T04:42:58.647Z,13.20
2018-03-21T04:45:26.302Z,13.53
2018-03-21T04:47:53.939Z,12.73
2018-03-21T04:50:21.571Z,11.87
2018-03-21T04:52:49.166Z,13.63
2018-03-21T04:55:16.782Z,12.87
2018-03-21T04:57:44.470Z,12.10
2018-03-21T05:00:12.094Z,10.77
2018-03-21T05:02:39.712Z,12.37
2018-03-21T05:05:07.407Z,13.07
2018-03-21T05:07:35.015Z,13.53
2018-03-21T05:10:02.615Z,12.63
2018-03-21T05:12:30.283Z,12.77
2018-03-21T05:14:57.884Z,13.30
2018-03-21T05:17:25.506Z,15.80
2018-03-21T05:19:53.122Z,13.80
2018-03-21T05:22:20.875Z,14.27
2018-03-21T05:24:49.347Z,13.37
2018-03-21T05:27:16.977Z,13.03
2018-03-21T05:29:44.589Z,13.13
2018-03-21T05:32:12.202Z,15.03
2018-03-21T05:34:39.822Z,15.10
2018-03-21T05:37:07.408Z,15.60
2018-03-21T05:39:34.998Z,15.53
2018-03-21T05:42:02.593Z,13.17
2018-03-21T05:44:30.187Z,14.33
2018-03-21T05:46:57.838Z,15.03
2018-03-21T05:49:25.454Z,12.37
2018-03-21T05:51:53.035Z,13.97
2018-03-21T05:54:20.670Z,14.83
2018-03-21T05:56:48.295Z,14.00
2018-03-21T05:59:15.886Z,13.80
2018-03-21T06:01:43.505Z,13.70
2018-03-21T06:04:11.172Z,16.20
2018-03-21T06:06:38.784Z,16.80
2018-03-21T06:09:06.441Z,17.80
2018-03-21T06:11:34.129Z,18.77
2018-03-21T06:14:01.765Z,19.10
2018-03-21T06:16:29.359Z,18.73
2018-03-21T06:18:57.047Z,17.97
2018-03-21T06:21:24.754Z,17.93
2018-03-21T06:23:52.368Z,20.03
2018-03-21T06:26:20.039Z,22.73
2018-03-21T06:28:47.676Z,24.17
2018-03-21T06:31:15.279Z,23.40
2018-03-21T06:33:42.945Z,22.67
2018-03-21T06:36:10.531Z,23.73
2018-03-21T06:38:38.170Z,22.73
2018-03-21T06:41:05.863Z,25.30
2018-03-21T06:43:33.499Z,24.80
2018-03-21T06:46:01.098Z,23.63
2018-03-21T06:48:28.746Z,24.57
2018-03-21T06:50:56.369Z,25.10
2018-03-21T06:53:24.019Z,27.03
2018-03-21T06:55:51.619Z,24.80
2018-03-21T06:58:19.274Z,26.97
2018-03-21T07:00:46.982Z,27.73
2018-03-21T07:03:14.594Z,27.60
2018-03-21T07:05:42.327Z,31.23
2018-03-21T07:08:09.955Z,27.50
2018-03-21T07:10:37.768Z,31.70
2018-03-21T07:13:05.355Z,27.83
2018-03-21T07:15:44.647Z,29.43
2018-03-21T07:18:12.242Z,28.37
2018-03-21T07:20:39.944Z,27.13
2018-03-21T07:23:07.597Z,27.07
2018-03-21T07:25:35.193Z,28.07
2018-03-21T07:28:02.818Z,27.83
2018-03-21T07:30:30.455Z,28.30
2018-03-21T07:32:58.050Z,25.50
2018-03-21T07:35:25.643Z,28.70
2018-03-21T07:37:53.347Z,28.40
2018-03-21T07:40:20.943Z,28.93
2018-03-21T07:42:48.553Z,26.43
2018-03-21T07:45:16.179Z,27.97
2018-03-21T07:47:43.803Z,28.57
2018-03-21T07:50:11.387Z,28.33
2018-03-21T07:52:39.015Z,28.47
2018-03-21T07:55:06.635Z,30.17
2018-03-21T07:57:34.235Z,28.90
2018-03-21T08:00:01.862Z,29.40
2018-03-21T08:02:29.598Z,29.63
2018-03-21T08:04:57.191Z,27.07
2018-03-21T08:07:24.879Z,27.67
2018-03-21T08:09:52.481Z,27.73
2018-03-21T08:12:20.146Z,26.63
2018-03-21T08:14:47.731Z,24.97
2018-03-21T08:17:15.322Z,25.20
2018-03-21T08:19:42.919Z,23.63
2018-03-21T08:22:10.539Z,27.50
2018-03-21T08:24:38.162Z,28.73
2018-03-21T08:27:05.749Z,26.43
2018-03-21T08:29:33.352Z,28.53
2018-03-21T08:32:01.007Z,26.67
2018-03-21T08:34:28.656Z,30.13
2018-03-21T08:36:56.247Z,27.40
2018-03-21T08:39:23.879Z,28.00
2018-03-21T08:41:51.495Z,28.30
2018-03-21T08:44:19.104Z,29.00
2018-03-21T08:46:46.842Z,28.50
2018-03-21T08:49:14.436Z,26.97
2018-03-21T08:51:42.037Z,29.10
2018-03-21T08:54:09.715Z,29.07
2018-03-21T08:56:37.295Z,28.30
2018-03-21T08:59:04.902Z,29.90
2018-03-21T09:01:32.538Z,27.97
2018-03-21T09:04:00.139Z,27.53
2018-03-21T09:06:27.748Z,26.70
2018-03-21T09:08:55.374Z,23.40
2018-03-21T09:11:22.976Z,23.90
2018-03-21T09:13:50.607Z,25.83
2018-03-21T09:16:18.227Z,26.27
2018-03-21T09:18:45.847Z,24.30
2018-03-21T09:21:13.487Z,25.70
2018-03-21T09:23:41.071Z,27.20
2018-03-21T09:26:08.728Z,28.77
2018-03-21T09:28:36.336Z,29.10
2018-03-21T09:31:03.959Z,26.93
2018-03-21T09:33:31.605Z,31.13
2018-03-21T09:35:59.369Z,31.13
2018-03-21T09:38:26.987Z,27.20
2018-03-21T09:40:54.606Z,27.47
2018-03-21T09:43:22.352Z,24.50
2018-03-21T09:45:50.021Z,23.27
2018-03-21T09:48:17.659Z,25.43
2018-03-21T09:50:45.327Z,25.87
2018-03-21T09:53:12.922Z,27.00
2018-03-21T09:55:40.522Z,25.07
2018-03-21T09:58:08.211Z,27.40
2018-03-21T10:00:35.832Z,26.10
2018-03-21T10:03:03.538Z,27.40
2018-03-21T10:05:31.418Z,31.17
2018-03-21T10:07:59.249Z,29.17
2018-03-21T10:10:26.920Z,26.37
2018-03-21T10:12:54.583Z,27.10
2018-03-21T10:15:22.202Z,51.90
2018-03-21T10:17:49.849Z,24.93
2018-03-21T10:20:17.439Z,25.53
2018-03-21T10:22:45.059Z,25.10
2018-03-21T10:25:12.730Z,27.37
2018-03-21T10:27:40.355Z,25.90
2018-03-21T10:30:07.951Z,28.63
2018-03-21T10:32:35.592Z,26.87
2018-03-21T10:35:03.240Z,23.73
2018-03-21T10:37:30.841Z,26.47
2018-03-21T10:39:58.472Z,27.63
2018-03-21T10:42:26.103Z,25.67
2018-03-21T10:44:53.769Z,23.37
2018-03-21T10:47:21.412Z,25.77
2018-03-21T10:49:49.082Z,25.73
2018-03-21T10:52:16.748Z,28.17
2018-03-21T10:54:44.348Z,27.67
2018-03-21T10:57:11.943Z,28.13
2018-03-21T10:59:39.536Z,24.00
2018-03-21T11:02:12.775Z,24.50
2018-03-21T11:04:40.402Z,27.83
2018-03-21T11:07:08.002Z,22.43
2018-03-21T11:09:35.670Z,23.50
2018-03-21T11:12:03.322Z,25.13
2018-03-21T11:14:30.916Z,24.10
2018-03-21T11:16:58.507Z,25.17
2018-03-21T11:19:26.130Z,24.63
2018-03-21T11:21:53.747Z,23.57
2018-03-21T11:24:21.395Z,27.23
2018-03-21T11:26:49.125Z,24.83
2018-03-21T11:29:16.722Z,27.27
2018-03-21T11:31:44.316Z,27.17
2018-03-21T11:34:11.995Z,25.87
2018-03-21T11:36:39.571Z,27.67
2018-03-21T11:39:07.163Z,31.57
2018-03-21T11:41:34.792Z,27.83
2018-03-21T11:44:02.382Z,34.63
2018-03-21T11:46:30.047Z,37.67
2018-03-21T11:48:57.644Z,38.70
2018-03-21T11:51:25.267Z,50.93
2018-03-21T11:53:52.899Z,36.60
2018-03-21T11:56:20.496Z,36.03
2018-03-21T11:58:48.157Z,33.73
2018-03-21T12:01:15.786Z,37.80
2018-03-21T12:03:43.379Z,32.03
2018-03-21T12:06:11.008Z,36.20
2018-03-21T12:08:38.649Z,31.37
2018-03-21T12:11:06.251Z,31.17
2018-03-21T12:13:33.911Z,32.63
2018-03-21T12:16:01.521Z,34.10
2018-03-21T12:18:29.160Z,39.03
2018-03-21T12:20:56.783Z,38.90
2018-03-21T12:23:24.388Z,34.93
2018-03-21T12:25:52.051Z,35.30
2018-03-21T12:28:19.647Z,34.57
2018-03-21T12:30:51.943Z,34.03
2018-03-21T12:33:19.546Z,29.77
2018-03-21T12:35:47.683Z,37.13
2018-03-21T12:38:16.403Z,25.80
2018-03-21T12:40:44.071Z,28.33
2018-03-21T12:43:11.768Z,27.67
2018-03-21T12:45:39.391Z,27.37
2018-03-21T12:48:07.123Z,25.33
2018-03-21T12:50:34.784Z,27.00
2018-03-21T12:53:02.409Z,26.70
2018-03-21T12:55:30.048Z,27.73
2018-03-21T12:57:57.767Z,27.17
2018-03-21T13:00:25.387Z,24.73
2018-03-21T13:02:53.038Z,35.90
2018-03-21T13:05:20.719Z,24.03
2018-03-21T13:07:48.396Z,27.57
2018-03-21T13:10:16.115Z,25.63
2018-03-21T13:12:43.832Z,28.73
2018-03-21T13:15:11.460Z,29.47
2018-03-21T13:17:39.204Z,28.07
2018-03-21T13:20:06.934Z,27.70
2018-03-21T13:22:34.529Z,28.33
2018-03-21T13:25:02.175Z,29.47
2018-03-21T13:27:29.804Z,26.83
2018-03-21T13:29:57.419Z,27.73
2018-03-21T13:32:25.016Z,26.50
2018-03-21T13:34:52.637Z,26.13
2018-03-21T13:37:20.279Z,24.63
2018-03-21T13:39:47.911Z,26.57
2018-03-21T13:42:15.563Z,26.33
2018-03-21T13:44:43.200Z,26.27
2018-03-21T13:47:10.867Z,24.93
2018-03-21T13:49:38.471Z,24.03
2018-03-21T13:52:06.115Z,25.33
2018-03-21T13:54:33.706Z,25.00
2018-03-21T13:57:01.295Z,24.47
2018-03-21T13:59:28.941Z,21.73
2018-03-21T14:01:56.540Z,23.63
2018-03-21T14:04:24.152Z,25.20
2018-03-21T14:06:51.977Z,26.23
2018-03-21T14:09:19.631Z,25.93
2018-03-21T14:11:47.224Z,25.93
2018-03-21T14:14:14.819Z,26.63
2018-03-21T14:16:42.539Z,26.17
2018-03-21T14:19:10.196Z,26.87
2018-03-21T14:21:37.804Z,26.97
2018-03-21T14:24:05.434Z,26.73
2018-03-21T14:26:33.032Z,27.23
2018-03-21T14:29:00.614Z,26.30
2018-03-21T14:31:29.143Z,30.00
2018-03-21T14:33:56.749Z,28.40
2018-03-21T14:36:24.341Z,32.90
2018-03-21T14:38:52.007Z,30.67
2018-03-21T14:41:19.617Z,31.20
2018-03-21T14:43:47.226Z,31.03
2018-03-21T14:46:14.935Z,30.70
2018-03-21T14:48:42.531Z,28.73
2018-03-21T14:51:10.147Z,26.50
2018-03-21T14:53:37.813Z,30.97
2018-03-21T14:56:05.450Z,46.67
2018-03-21T14:58:33.067Z,26.63
2018-03-21T15:01:00.659Z,29.03
2018-03-21T15:03:28.308Z,26.83
2018-03-21T15:05:55.934Z,29.03
2018-03-21T15:08:23.534Z,28.53
2018-03-21T15:10:51.180Z,27.23
2018-03-21T15:13:29.032Z,27.77
2018-03-21T15:15:56.623Z,29.60
2018-03-21T15:18:24.259Z,28.97
2018-03-21T15:20:51.912Z,28.30
2018-03-21T15:23:19.507Z,29.30
2018-03-21T15:25:47.176Z,29.20
2018-03-21T15:28:14.794Z,28.30
2018-03-21T15:30:43.027Z,31.17
2018-03-21T15:33:10.674Z,33.20
2018-03-21T15:35:38.273Z,30.73
2018-03-21T15:38:05.954Z,30.37
2018-03-21T15:40:33.542Z,30.37
2018-03-21T15:43:01.160Z,31.27
2018-03-21T15:45:28.826Z,34.93
2018-03-21T15:47:56.447Z,30.90
2018-03-21T15:50:24.038Z,35.63
2018-03-21T15:52:51.759Z,38.47
2018-03-21T15:55:19.383Z,42.50
2018-03-21T15:57:47.107Z,44.77
2018-03-21T16:00:14.818Z,45.03
2018-03-21T16:02:42.415Z,42.47
2018-03-21T16:05:10.053Z,39.27
2018-03-21T16:07:37.715Z,38.93
2018-03-21T16:10:05.307Z,38.83
2018-03-21T16:12:32.921Z,42.30
2018-03-21T16:15:00.572Z,35.07
2018-03-21T16:17:28.224Z,33.73
2018-03-21T16:19:56.003Z,32.97
2018-03-21T16:22:24.009Z,34.93
2018-03-21T16:24:52.737Z,35.33
2018-03-21T16:27:20.402Z,36.77
2018-03-21T16:29:48.025Z,40.37
2018-03-21T16:32:15.672Z,39.90
2018-03-21T16:34:43.411Z,40.27
2018-03-21T16:37:11.024Z,45.37
2018-03-21T16:39:38.627Z,37.90
2018-03-21T16:42:06.296Z,51.20
2018-03-21T16:44:34.236Z,45.80
2018-03-21T16:47:01.921Z,48.57
2018-03-21T16:49:29.624Z,46.27
2018-03-21T16:51:57.283Z,47.17
2018-03-21T16:54:24.932Z,46.13
2018-03-21T16:56:52.527Z,47.23
2018-03-21T16:59:20.129Z,45.83
2018-03-21T17:01:47.739Z,47.87
2018-03-21T17:04:15.339Z,51.73
2018-03-21T17:06:42.967Z,51.57
2018-03-21T17:09:10.569Z,51.63
2018-03-21T17:11:38.166Z,59.87
2018-03-21T17:14:05.815Z,57.23
2018-03-21T17:16:33.420Z,55.97
2018-03-21T17:19:01.038Z,53.33
2018-03-21T17:21:28.685Z,54.67
2018-03-21T17:23:56.371Z,54.90
2018-03-21T17:26:23.981Z,54.57
2018-03-21T17:28:51.587Z,54.07
2018-03-21T17:31:19.385Z,56.03
2018-03-21T17:33:47.100Z,55.03
2018-03-21T17:36:15.128Z,54.17
2018-03-21T17:38:42.844Z,53.33
2018-03-21T17:41:10.480Z,53.53
2018-03-21T17:43:38.121Z,55.07
2018-03-21T17:46:05.768Z,56.73
2018-03-21T17:48:33.379Z,52.67
2018-03-21T17:51:01.179Z,57.00
2018-03-21T17:53:28.860Z,63.50
2018-03-21T17:55:56.633Z,63.03
2018-03-21T17:58:24.263Z,60.30
2018-03-21T18:00:51.910Z,58.07
2018-03-21T18:03:19.527Z,58.83
2018-03-21T18:05:47.143Z,62.10
2018-03-21T18:08:14.864Z,65.97
2018-03-21T18:10:42.471Z,58.63
2018-03-21T18:13:10.070Z,61.67
2018-03-21T18:15:37.678Z,62.50
2018-03-21T18:18:05.289Z,54.00
2018-03-21T18:20:32.967Z,51.87
2018-03-21T18:23:00.610Z,57.10
2018-03-21T18:25:28.327Z,61.40
2018-03-21T18:27:56.069Z,50.70
2018-03-21T18:30:23.667Z,52.90
2018-03-21T18:32:51.303Z,52.80
2018-03-21T18:35:18.898Z,53.87
2018-03-21T18:37:46.554Z,50.77
2018-03-21T18:40:14.167Z,53.23
2018-03-21T18:42:41.763Z,53.17
2018-03-21T18:45:09.394Z,59.20
2018-03-21T18:47:37.010Z,61.20
2018-03-21T18:50:04.611Z,59.07
2018-03-21T18:52:32.275Z,60.47
2018-03-21T18:54:59.903Z,60.73
2018-03-21T18:57:27.493Z,79.77
2018-03-21T18:59:55.135Z,114.00
2018-03-21T19:02:22.743Z,100.17
2018-03-21T19:04:50.343Z,56.00
2018-03-21T19:07:17.996Z,57.47
2018-03-21T19:09:45.615Z,118.40
2018-03-21T19:12:13.233Z,84.27
2018-03-21T19:14:40.923Z,76.57
2018-03-21T19:17:08.521Z,56.50
2018-03-21T19:19:36.117Z,57.00
2018-03-21T19:22:03.759Z,54.87
2018-03-21T19:24:31.355Z,52.17
2018-03-21T19:26:59.043Z,51.37
2018-03-21T19:29:26.803Z,47.07
2018-03-21T19:31:54.454Z,51.07
2018-03-21T19:34:22.060Z,54.93
2018-03-21T19:36:49.659Z,51.83
2018-03-21T19:39:17.255Z,47.97
2018-03-21T19:41:44.888Z,48.23
2018-03-21T19:44:12.493Z,55.17
2018-03-21T19:46:40.092Z,49.90
2018-03-21T19:49:07.756Z,64.63
2018-03-21T19:51:35.423Z,57.93
2018-03-21T19:54:03.228Z,47.13
2018-03-21T19:56:31.794Z,51.13
2018-03-21T19:58:59.408Z,53.37
2018-03-21T20:01:27.049Z,63.60
2018-03-21T20:03:54.696Z,57.10
2018-03-21T20:06:22.291Z,55.57
2018-03-21T20:08:49.916Z,49.33
2018-03-21T20:11:17.506Z,37.77
2018-03-21T20:13:45.119Z,35.83
2018-03-21T20:16:12.743Z,29.53
2018-03-21T20:18:40.336Z,28.20
2018-03-21T20:21:07.950Z,26.40
2018-03-21T20:23:35.577Z,27.37
2018-03-21T20:26:03.182Z,22.67
2018-03-21T20:28:30.771Z,20.53
2018-03-21T20:30:58.391Z,20.63
2018-03-21T20:33:26.012Z,20.17
2018-03-21T20:35:53.667Z,20.87
2018-03-21T20:38:21.301Z,20.60
2018-03-21T20:40:48.895Z,21.77
2018-03-21T20:43:16.491Z,19.97
2018-03-21T20:45:44.120Z,20.93
2018-03-21T20:48:11.747Z,20.27
2018-03-21T20:50:39.394Z,21.83
2018-03-21T20:53:07.007Z,20.53
2018-03-21T20:55:34.626Z,20.80
2018-03-21T20:58:02.251Z,20.90
2018-03-21T21:00:29.842Z,20.83
2018-03-21T21:02:57.479Z,21.53
2018-03-21T21:05:25.068Z,21.50
2018-03-21T21:07:52.674Z,22.33
2018-03-21T21:10:20.363Z,22.13
2018-03-21T21:12:47.991Z,21.23
2018-03-21T21:15:15.607Z,23.13
2018-03-21T21:17:43.239Z,23.10
2018-03-21T21:20:10.835Z,21.20
2018-03-21T21:22:38.427Z,19.67
2018-03-21T21:25:06.075Z,20.27
2018-03-21T21:27:33.771Z,19.40
2018-03-21T21:30:01.395Z,18.37
2018-03-21T21:32:29.012Z,24.40
2018-03-21T21:34:56.627Z,19.50
2018-03-21T21:37:24.295Z,20.70
2018-03-21T21:39:52.000Z,20.90
2018-03-21T21:42:19.642Z,17.80
2018-03-21T21:44:47.291Z,22.90
2018-03-21T21:47:14.916Z,18.20
2018-03-21T21:49:42.543Z,14.93
2018-03-21T21:52:10.207Z,16.37
2018-03-21T21:54:37.803Z,15.90
2018-03-21T21:57:05.447Z,15.60
2018-03-21T21:59:33.023Z,14.47
2018-03-21T22:02:00.611Z,15.57
2018-03-21T22:04:28.283Z,15.90
2018-03-21T22:06:55.917Z,14.70
2018-03-21T22:09:23.764Z,13.23
2018-03-21T22:11:51.418Z,13.43
2018-03-21T22:14:19.083Z,15.53
2018-03-21T22:16:46.743Z,20.60
2018-03-21T22:19:14.331Z,19.47
2018-03-21T22:21:41.979Z,15.90
2018-03-21T22:24:09.632Z,13.53
2018-03-21T22:26:37.234Z,12.40
2018-03-21T22:29:04.830Z,12.53
2018-03-21T22:31:32.458Z,12.97
2018-03-21T22:34:00.059Z,13.43
2018-03-21T22:36:30.751Z,12.93
2018-03-21T22:38:58.383Z,11.43
2018-03-21T22:41:25.974Z,12.00
2018-03-21T22:43:53.589Z,12.30
2018-03-21T22:46:21.182Z,12.20
2018-03-21T22:48:48.775Z,11.87
2018-03-21T22:51:16.402Z,12.00
2018-03-21T22:53:44.020Z,12.03
2018-03-21T22:56:11.603Z,12.30
2018-03-21T22:58:39.271Z,13.03
2018-03-21T23:01:06.868Z,12.47
2018-03-21T23:03:34.471Z,11.73
2018-03-21T23:06:02.115Z,10.90
2018-03-21T23:08:29.805Z,10.70
2018-03-21T23:10:57.411Z,11.63
2018-03-21T23:13:25.027Z,11.03
2018-03-21T23:15:52.726Z,10.67
2018-03-21T23:18:20.287Z,11.63
2018-03-21T23:20:47.907Z,11.43
2018-03-21T23:23:15.536Z,11.83
2018-03-21T23:25:43.167Z,10.17
2018-03-21T23:28:10.760Z,12.47
2018-03-21T23:30:38.390Z,11.00
2018-03-21T23:33:05.981Z,11.63
2018-03-21T23:35:33.650Z,12.23
2018-03-21T23:38:01.251Z,11.57
2018-03-21T23:40:28.880Z,11.80
2018-03-21T23:42:56.516Z,10.70
2018-03-21T23:45:24.114Z,12.30
2018-03-21T23:47:51.800Z,11.33
2018-03-21T23:50:19.460Z,12.20
2018-03-21T23:52:47.068Z,11.93
2018-03-21T23:55:14.672Z,11.60
2018-03-21T23:57:42.391Z,11.77
